Time;durP1;ratioP1;P1;durP2;ratioP2;P2;SDS_P1;SDS_P2;PMS_P1;PMS_P2;Temp;Humidity;BMP_temperature;BMP_pressure;BME280_temperature;BME280_humidity;BME280_pressure;Samples;Min_cycle;Max_cycle;Signal;HPM_P1;HPM_P2
2022/08/19 00:00:37;;;;;;;4.05;1.70;;;16.00;99.90;;;;;;5032665;28;20041;-71
2022/08/19 00:03:03;;;;;;;2.75;1.80;;;15.90;99.90;;;;;;5050453;28;20045;-72
2022/08/19 00:05:29;;;;;;;4.18;2.30;;;15.90;99.90;;;;;;5034078;28;20037;-71
2022/08/19 00:07:55;;;;;;;4.07;2.15;;;15.90;99.90;;;;;;5034136;28;20045;-71
2022/08/19 00:10:21;;;;;;;4.35;2.38;;;15.80;99.90;;;;;;5041139;28;20083;-72
2022/08/19 00:12:47;;;;;;;2.90;1.60;;;15.80;99.90;;;;;;5053981;28;20041;-71
2022/08/19 00:15:14;;;;;;;4.45;1.98;;;15.90;99.90;;;;;;5037280;28;20392;-70
2022/08/19 00:17:42;;;;;;;2.72;1.33;;;15.90;99.90;;;;;;5053792;28;20056;-71
2022/08/19 00:20:10;;;;;;;2.72;1.40;;;15.90;99.90;;;;;;5052534;28;20044;-71
2022/08/19 00:22:36;;;;;;;1.75;1.20;;;15.80;99.90;;;;;;5037121;28;20076;-72
2022/08/19 00:25:02;;;;;;;3.45;1.85;;;15.70;99.90;;;;;;5037238;28;20443;-73
2022/08/19 00:27:28;;;;;;;4.95;2.35;;;15.70;99.90;;;;;;5036019;28;20063;-72
2022/08/19 00:29:54;;;;;;;5.68;2.83;;;15.70;99.90;;;;;;5036274;28;20477;-73
2022/08/19 00:32:20;;;;;;;5.20;2.58;;;15.60;99.90;;;;;;5053475;28;20489;-73
2022/08/19 00:34:46;;;;;;;5.03;2.83;;;15.60;99.90;;;;;;5053329;28;20037;-73
2022/08/19 00:37:12;;;;;;;2.03;1.00;;;15.60;99.90;;;;;;5053400;28;20098;-72
2022/08/19 00:39:38;;;;;;;0.93;0.77;;;15.60;99.90;;;;;;5051013;28;20045;-72
2022/08/19 00:42:06;;;;;;;2.58;1.00;;;15.60;99.90;;;;;;5069199;28;20043;-72
2022/08/19 00:44:32;;;;;;;4.10;1.25;;;15.60;99.90;;;;;;5036775;28;20389;-70
2022/08/19 00:46:58;;;;;;;3.47;1.30;;;15.50;99.90;;;;;;5053491;28;20405;-71
2022/08/19 00:49:32;;;;;;;4.32;2.03;;;15.40;99.90;;;;;;5032188;28;20042;-70
2022/08/19 00:52:08;;;;;;;4.80;2.25;;;15.40;99.90;;;;;;5016808;28;20045;-71
2022/08/19 00:54:36;;;;;;;3.13;1.90;;;15.40;99.90;;;;;;5034924;28;20112;-70
2022/08/19 00:57:06;;;;;;;5.03;1.20;;;15.30;99.90;;;;;;5053107;28;20056;-71
2022/08/19 00:59:35;;;;;;;3.97;1.48;;;15.30;99.90;;;;;;5051306;28;20037;-71
2022/08/19 01:02:01;;;;;;;1.55;0.93;;;15.40;99.90;;;;;;5050857;28;20095;-72
2022/08/19 01:04:27;;;;;;;1.98;0.90;;;15.40;99.90;;;;;;5052864;28;20044;-71
2022/08/19 01:06:52;;;;;;;2.47;0.88;;;15.40;99.90;;;;;;5053003;28;20037;-72
2022/08/19 01:09:18;;;;;;;2.92;0.90;;;15.50;99.90;;;;;;5049983;28;20481;-72
2022/08/19 01:11:45;;;;;;;2.70;1.25;;;15.50;99.90;;;;;;5036219;28;20048;-72
2022/08/19 01:14:11;;;;;;;0.73;0.50;;;15.40;99.90;;;;;;5052458;28;20053;-70
2022/08/19 01:16:39;;;;;;;1.52;0.60;;;15.50;99.90;;;;;;5031744;28;20033;-71
2022/08/19 01:19:15;;;;;;;1.05;0.50;;;15.50;99.90;;;;;;5023452;28;20041;-71
2022/08/19 01:21:51;;;;;;;0.52;0.52;;;15.50;99.90;;;;;;5032654;28;20034;-71
2022/08/19 01:24:17;;;;;;;1.42;0.40;;;15.50;99.90;;;;;;5032493;28;20041;-72
2022/08/19 01:26:44;;;;;;;1.23;0.60;;;15.50;99.90;;;;;;5047700;28;20044;-70
2022/08/19 01:29:10;;;;;;;2.08;0.80;;;15.40;99.90;;;;;;5015192;28;20059;-72
2022/08/19 01:31:39;;;;;;;2.45;1.00;;;15.30;99.90;;;;;;5027540;28;20138;-71
2022/08/19 01:34:05;;;;;;;1.92;0.93;;;15.10;99.90;;;;;;5032820;28;20029;-71
2022/08/19 01:36:36;;;;;;;1.65;0.93;;;15.10;99.90;;;;;;5035869;28;20033;-71
2022/08/19 01:39:08;;;;;;;4.60;1.60;;;15.00;99.90;;;;;;5051375;28;20064;-71
2022/08/19 01:41:34;;;;;;;2.42;1.38;;;14.90;99.90;;;;;;5034156;28;20041;-71
2022/08/19 01:44:03;;;;;;;1.70;0.80;;;14.80;99.90;;;;;;5035618;28;20520;-71
2022/08/19 01:46:30;;;;;;;1.50;0.77;;;14.70;99.90;;;;;;5032824;28;20047;-71
2022/08/19 01:48:55;;;;;;;2.05;1.00;;;14.70;99.90;;;;;;5056443;28;20048;-72
2022/08/19 01:51:21;;;;;;;4.10;1.20;;;14.70;99.90;;;;;;5049321;28;20397;-72
2022/08/19 01:53:48;;;;;;;2.83;1.13;;;14.80;99.90;;;;;;5052249;28;20106;-72
2022/08/19 01:56:14;;;;;;;2.03;1.05;;;14.70;99.90;;;;;;5051488;28;20476;-71
2022/08/19 01:58:50;;;;;;;1.52;1.20;;;14.80;99.90;;;;;;5045050;28;20133;-71
2022/08/19 02:01:16;;;;;;;1.85;1.25;;;14.80;99.90;;;;;;5015737;28;20044;-71
2022/08/19 02:03:42;;;;;;;3.58;1.20;;;14.80;99.90;;;;;;5048888;28;20049;-71
2022/08/19 02:06:07;;;;;;;4.72;1.40;;;14.80;99.90;;;;;;5062895;28;20040;-70
2022/08/19 02:08:36;;;;;;;4.32;1.20;;;14.80;99.90;;;;;;5052114;28;20093;-70
2022/08/19 02:11:02;;;;;;;3.85;1.58;;;14.70;99.90;;;;;;5050744;28;20041;-70
2022/08/19 02:13:28;;;;;;;3.80;1.63;;;14.70;99.90;;;;;;5051534;28;20048;-71
2022/08/19 02:15:54;;;;;;;2.28;1.40;;;14.70;99.90;;;;;;5021117;28;20037;-71
2022/08/19 02:18:20;;;;;;;3.25;1.60;;;14.70;99.90;;;;;;5013288;28;20121;-71
2022/08/19 02:20:47;;;;;;;3.28;1.58;;;14.70;99.90;;;;;;5047969;28;20115;-71
2022/08/19 02:23:14;;;;;;;3.00;1.67;;;14.70;99.90;;;;;;5047706;28;20045;-72
2022/08/19 02:25:40;;;;;;;6.50;2.10;;;14.70;99.90;;;;;;5031370;28;20056;-71
2022/08/19 02:28:06;;;;;;;4.55;2.35;;;14.70;99.90;;;;;;5048321;28;20045;-72
2022/08/19 02:30:33;;;;;;;9.68;2.95;;;14.70;99.90;;;;;;5047854;28;20434;-72
2022/08/19 02:32:59;;;;;;;6.10;3.17;;;14.60;99.90;;;;;;5031654;28;20080;-71
2022/08/19 02:35:25;;;;;;;6.53;3.45;;;14.50;99.90;;;;;;5031246;28;20040;-71
2022/08/19 02:40:35;;;;;;;6.25;3.10;;;14.50;99.90;;;;;;5048122;28;20036;-72
2022/08/19 02:43:02;;;;;;;7.57;3.28;;;14.40;99.90;;;;;;5038956;28;20098;-71
2022/08/19 02:45:32;;;;;;;6.95;2.92;;;14.40;99.90;;;;;;5034437;28;20057;-70
2022/08/19 02:47:58;;;;;;;5.03;2.22;;;14.30;99.90;;;;;;5052208;28;20095;-70
2022/08/19 02:50:24;;;;;;;5.85;2.80;;;14.20;99.90;;;;;;5019415;28;20049;-71
2022/08/19 02:52:49;;;;;;;5.13;2.60;;;14.10;99.90;;;;;;5035409;28;20517;-71
2022/08/19 02:55:15;;;;;;;3.53;1.95;;;14.20;99.90;;;;;;5042310;28;20440;-71
2022/08/19 02:57:41;;;;;;;5.45;2.03;;;14.20;99.90;;;;;;5055195;28;20073;-70
2022/08/19 03:00:11;;;;;;;3.03;1.70;;;14.30;99.90;;;;;;5048582;28;20037;-70
2022/08/19 03:02:37;;;;;;;2.63;1.50;;;14.30;99.90;;;;;;5025742;28;20494;-70
2022/08/19 03:05:04;;;;;;;3.15;1.60;;;14.30;99.90;;;;;;5052946;28;20048;-71
2022/08/19 03:07:30;;;;;;;4.28;2.08;;;14.30;99.90;;;;;;5045148;28;20033;-71
2022/08/19 03:09:56;;;;;;;4.70;2.08;;;14.30;99.90;;;;;;5030650;28;20450;-71
2022/08/19 03:12:22;;;;;;;3.55;1.80;;;14.30;99.90;;;;;;5023152;28;20044;-71
2022/08/19 03:14:47;;;;;;;3.33;1.90;;;14.20;99.90;;;;;;5054681;28;20056;-71
2022/08/19 03:17:13;;;;;;;3.85;1.85;;;14.20;99.90;;;;;;5037465;28;20044;-71
2022/08/19 03:19:38;;;;;;;3.95;2.13;;;14.20;99.90;;;;;;5055017;28;20116;-71
2022/08/19 03:22:04;;;;;;;4.60;2.00;;;14.10;99.90;;;;;;5038190;28;20155;-70
2022/08/19 03:24:30;;;;;;;4.00;1.85;;;14.10;99.90;;;;;;5053765;28;20060;-71
2022/08/19 03:26:58;;;;;;;3.83;2.03;;;14.10;99.90;;;;;;5038262;28;20153;-71
2022/08/19 03:29:26;;;;;;;2.83;1.67;;;14.10;99.90;;;;;;5054694;28;20066;-71
2022/08/19 03:31:51;;;;;;;2.83;1.70;;;14.10;99.90;;;;;;5055824;28;20041;-71
2022/08/19 03:34:20;;;;;;;3.58;2.13;;;14.10;99.90;;;;;;5050866;28;20040;-71
2022/08/19 03:36:47;;;;;;;4.60;2.47;;;14.10;99.90;;;;;;5054485;28;20119;-71
2022/08/19 03:39:13;;;;;;;5.95;2.63;;;14.00;99.90;;;;;;5053750;28;20045;-71
2022/08/19 03:41:41;;;;;;;4.85;2.38;;;14.10;99.90;;;;;;5038306;28;20057;-71
2022/08/19 03:44:08;;;;;;;3.88;2.10;;;14.00;99.90;;;;;;5053606;28;20041;-71
2022/08/19 03:46:36;;;;;;;5.40;2.28;;;14.00;99.90;;;;;;5054187;28;20596;-71
2022/08/19 03:49:06;;;;;;;5.43;2.50;;;14.00;99.90;;;;;;5037019;28;20049;-71
2022/08/19 03:51:35;;;;;;;5.43;2.35;;;14.00;99.90;;;;;;5054003;28;20051;-71
2022/08/19 03:54:03;;;;;;;5.65;2.70;;;14.00;99.90;;;;;;5036508;28;20040;-71
2022/08/19 03:56:29;;;;;;;4.97;2.70;;;13.90;99.90;;;;;;5054193;28;20041;-70
2022/08/19 03:58:57;;;;;;;6.03;3.08;;;13.80;99.90;;;;;;5036463;28;20084;-71
2022/08/19 04:01:28;;;;;;;8.27;4.05;;;13.90;99.90;;;;;;5052524;28;20033;-70
2022/08/19 04:03:56;;;;;;;7.93;4.15;;;13.90;99.90;;;;;;5042330;28;20041;-70
2022/08/19 04:06:26;;;;;;;10.32;5.03;;;13.90;99.90;;;;;;5071918;28;20485;-70
2022/08/19 04:08:54;;;;;;;8.02;4.60;;;13.90;99.90;;;;;;5052232;28;20437;-71
2022/08/19 04:11:23;;;;;;;4.70;2.38;;;13.90;99.90;;;;;;5037645;28;20041;-71
2022/08/19 04:13:51;;;;;;;5.28;2.33;;;13.80;99.90;;;;;;5034112;28;20045;-70
2022/08/19 04:16:19;;;;;;;5.90;2.63;;;13.90;99.90;;;;;;5035585;28;20438;-70
2022/08/19 04:18:45;;;;;;;7.13;3.10;;;13.90;99.90;;;;;;5056570;28;20036;-71
2022/08/19 04:21:20;;;;;;;5.53;2.60;;;13.90;99.90;;;;;;5043160;28;20045;-71
2022/08/19 04:23:46;;;;;;;6.03;2.85;;;13.90;99.90;;;;;;5017325;28;20129;-71
2022/08/19 04:26:15;;;;;;;7.45;3.55;;;14.00;99.90;;;;;;5031824;28;20037;-71
2022/08/19 04:28:42;;;;;;;6.88;3.28;;;14.00;99.90;;;;;;5027450;28;20037;-71
2022/08/19 04:31:14;;;;;;;7.68;4.15;;;14.00;99.90;;;;;;5043629;28;20040;-71
2022/08/19 04:33:39;;;;;;;7.97;3.95;;;13.90;99.90;;;;;;5028904;28;20096;-71
2022/08/19 04:36:05;;;;;;;5.90;3.10;;;13.90;99.90;;;;;;5049701;28;20033;-71
2022/08/19 04:38:31;;;;;;;4.22;2.10;;;13.90;99.90;;;;;;5036106;28;20424;-70
2022/08/19 04:43:41;;;;;;;6.32;2.65;;;13.90;99.90;;;;;;5058439;28;20045;-71
2022/08/19 04:46:11;;;;;;;4.88;2.00;;;13.90;99.90;;;;;;5051004;28;20039;-71
2022/08/19 04:48:38;;;;;;;5.70;2.30;;;13.90;99.90;;;;;;5043492;28;20087;-71
2022/08/19 04:51:10;;;;;;;6.68;2.63;;;13.80;99.90;;;;;;5051515;28;20512;-71
2022/08/19 04:53:37;;;;;;;8.97;4.27;;;13.80;99.90;;;;;;5042008;28;20073;-71
2022/08/19 04:56:13;;;;;;;7.28;3.67;;;13.70;99.90;;;;;;5037706;28;20377;-71
2022/08/19 04:58:42;;;;;;;4.57;2.22;;;13.70;99.90;;;;;;5038385;28;20033;-71
2022/08/19 05:01:11;;;;;;;3.47;1.63;;;13.70;99.90;;;;;;5034798;28;20056;-71
2022/08/19 05:03:37;;;;;;;6.15;2.33;;;13.70;99.90;;;;;;5049023;28;20123;-71
2022/08/19 05:06:14;;;;;;;5.55;2.60;;;13.70;99.90;;;;;;5024183;28;20103;-71
2022/08/19 05:08:43;;;;;;;4.40;1.92;;;13.70;99.90;;;;;;5034945;28;20057;-71
2022/08/19 05:11:16;;;;;;;4.38;2.10;;;13.70;99.90;;;;;;5040809;28;20091;-71
2022/08/19 05:13:43;;;;;;;4.07;2.20;;;13.70;99.90;;;;;;5045004;28;20090;-71
2022/08/19 05:16:10;;;;;;;5.05;2.63;;;13.70;99.90;;;;;;5043960;28;20037;-71
2022/08/19 05:24:08;;;;;;;4.32;2.10;;;13.70;99.90;;;;;;5065883;28;20497;-71
2022/08/19 05:26:35;;;;;;;3.97;1.95;;;13.70;99.90;;;;;;5062790;28;20516;-71
2022/08/19 05:29:02;;;;;;;3.88;2.20;;;13.70;99.90;;;;;;5039385;28;20040;-71
2022/08/19 05:31:29;;;;;;;3.40;1.95;;;13.70;99.90;;;;;;5034314;28;20044;-70
2022/08/19 05:33:55;;;;;;;4.28;2.05;;;13.70;99.90;;;;;;5049055;28;20079;-71
2022/08/19 05:36:21;;;;;;;4.15;2.10;;;13.70;99.90;;;;;;5039109;28;20052;-71
2022/08/19 05:38:47;;;;;;;4.90;2.35;;;13.80;99.90;;;;;;5044591;28;20041;-71
2022/08/19 05:41:14;;;;;;;4.60;2.42;;;13.80;99.90;;;;;;5062233;28;20037;-71
2022/08/19 05:43:40;;;;;;;4.43;2.20;;;13.90;99.90;;;;;;5038389;28;20076;-71
2022/08/19 05:46:08;;;;;;;5.20;2.45;;;13.90;99.90;;;;;;5029378;28;20456;-71
2022/08/19 05:48:35;;;;;;;6.15;2.85;;;13.90;99.90;;;;;;5035536;28;20048;-71
2022/08/19 05:51:06;;;;;;;7.20;3.20;;;14.00;99.90;;;;;;5043110;28;20075;-71
2022/08/19 05:53:33;;;;;;;7.90;3.88;;;14.10;99.90;;;;;;5041351;28;20090;-71
2022/08/19 05:56:05;;;;;;;8.70;3.53;;;14.10;99.90;;;;;;5039635;28;20037;-71
2022/08/19 05:58:32;;;;;;;7.93;4.05;;;14.20;99.90;;;;;;5036964;28;20116;-71
2022/08/19 06:00:58;;;;;;;7.20;4.20;;;14.30;99.90;;;;;;5032763;28;20026;-72
2022/08/19 06:03:23;;;;;;;7.50;4.35;;;14.30;99.90;;;;;;5034530;28;20124;-71
2022/08/19 06:05:49;;;;;;;8.30;4.85;;;14.40;99.90;;;;;;5020489;28;20168;-72
2022/08/19 06:08:18;;;;;;;10.13;4.72;;;14.50;99.90;;;;;;5045296;28;20085;-71
2022/08/19 06:10:43;;;;;;;9.63;5.50;;;14.70;99.90;;;;;;5031157;28;20072;-72
2022/08/19 06:13:09;;;;;;;10.55;7.43;;;14.80;99.90;;;;;;5046641;28;20080;-72
2022/08/19 06:15:34;;;;;;;11.52;7.25;;;14.90;99.90;;;;;;5032483;28;20044;-72
2022/08/19 06:18:00;;;;;;;11.93;8.50;;;15.00;99.90;;;;;;5041659;28;20429;-72
2022/08/19 06:20:26;;;;;;;11.90;8.10;;;15.10;99.90;;;;;;5043120;28;20502;-72
2022/08/19 06:22:52;;;;;;;12.25;8.45;;;15.30;99.90;;;;;;5039399;28;20033;-72
2022/08/19 06:25:18;;;;;;;12.98;8.90;;;15.40;99.90;;;;;;5036881;28;20114;-71
2022/08/19 06:27:44;;;;;;;11.80;8.35;;;15.50;99.90;;;;;;5033004;28;20045;-72
2022/08/19 06:30:11;;;;;;;11.85;8.48;;;15.60;99.90;;;;;;5042592;28;20041;-72
2022/08/19 06:32:37;;;;;;;13.00;9.07;;;15.80;99.90;;;;;;5030393;28;20044;-72
2022/08/19 06:35:04;;;;;;;13.20;8.82;;;15.90;99.90;;;;;;5027913;28;20033;-72
2022/08/19 06:37:29;;;;;;;12.85;9.65;;;16.00;99.90;;;;;;5033916;28;20056;-72
2022/08/19 06:39:55;;;;;;;14.85;11.20;;;16.10;99.90;;;;;;5034623;28;20409;-72
2022/08/19 06:42:21;;;;;;;15.27;10.73;;;16.20;99.90;;;;;;5030575;28;20056;-72
2022/08/19 06:44:48;;;;;;;16.30;11.40;;;16.40;99.90;;;;;;5037840;28;20049;-72
2022/08/19 06:47:17;;;;;;;16.88;12.13;;;16.50;99.90;;;;;;5030842;28;20053;-72
2022/08/19 06:49:42;;;;;;;18.30;12.15;;;16.70;99.90;;;;;;5044964;28;20078;-72
2022/08/19 06:52:11;;;;;;;17.85;12.63;;;16.90;99.90;;;;;;5049669;28;20045;-72
2022/08/19 06:54:38;;;;;;;18.55;12.70;;;17.00;99.90;;;;;;5039012;28;20044;-72
2022/08/19 06:57:06;;;;;;;16.83;12.77;;;17.20;99.90;;;;;;5029964;28;20406;-72
2022/08/19 06:59:32;;;;;;;18.48;13.13;;;17.30;99.90;;;;;;5034891;28;20069;-72
2022/08/19 07:02:01;;;;;;;16.98;12.88;;;17.40;99.90;;;;;;5048090;28;20051;-72
2022/08/19 07:04:34;;;;;;;18.52;12.98;;;17.60;99.90;;;;;;5038742;28;20067;-72
2022/08/19 07:07:05;;;;;;;18.38;12.45;;;17.70;99.90;;;;;;5050013;28;20048;-72
2022/08/19 07:09:31;;;;;;;16.65;12.40;;;17.80;99.90;;;;;;5026130;28;20044;-72
2022/08/19 07:11:57;;;;;;;15.43;11.40;;;17.90;99.90;;;;;;5027954;28;20075;-72
2022/08/19 07:14:25;;;;;;;18.42;13.15;;;18.00;99.90;;;;;;5033387;28;20080;-72
2022/08/19 07:16:54;;;;;;;15.18;12.02;;;18.20;99.90;;;;;;5047201;28;20128;-71
2022/08/19 07:19:21;;;;;;;17.38;13.02;;;18.30;99.90;;;;;;5032933;28;20490;-72
2022/08/19 07:21:50;;;;;;;18.45;13.30;;;18.30;99.90;;;;;;5039909;28;20029;-72
2022/08/19 07:24:16;;;;;;;16.35;12.90;;;18.50;99.90;;;;;;5042673;28;20040;-72
2022/08/19 07:26:43;;;;;;;17.67;12.05;;;18.60;99.90;;;;;;5053095;28;20179;-72
2022/08/19 07:29:10;;;;;;;17.70;12.32;;;18.70;99.90;;;;;;5030383;28;20037;-71
2022/08/19 07:31:36;;;;;;;16.58;11.93;;;18.80;99.90;;;;;;5034780;28;20045;-71
2022/08/19 07:34:07;;;;;;;17.27;11.73;;;18.90;99.90;;;;;;5018020;28;20037;-72
2022/08/19 07:36:35;;;;;;;15.48;11.05;;;19.10;99.90;;;;;;5068093;28;20077;-72
2022/08/19 07:39:07;;;;;;;16.70;11.73;;;19.10;99.90;;;;;;5069981;28;20504;-72
2022/08/19 07:41:35;;;;;;;16.17;11.75;;;19.30;99.90;;;;;;5053862;28;20051;-75
2022/08/19 07:44:03;;;;;;;15.75;12.80;;;19.30;99.90;;;;;;5070046;28;20072;-73
2022/08/19 07:46:32;;;;;;;14.82;11.60;;;19.50;99.90;;;;;;5040770;28;20102;-72
2022/08/19 07:48:58;;;;;;;17.23;11.63;;;19.60;99.90;;;;;;5054238;28;20037;-73
2022/08/19 07:51:24;;;;;;;15.90;11.50;;;19.70;99.90;;;;;;5038017;28;20068;-73
2022/08/19 07:53:50;;;;;;;14.80;11.00;;;19.80;99.90;;;;;;5030866;28;20080;-73
2022/08/19 07:56:18;;;;;;;14.45;11.70;;;19.90;99.90;;;;;;5034583;28;20482;-72
2022/08/19 07:58:45;;;;;;;13.95;11.05;;;20.00;99.90;;;;;;5051599;28;20041;-73
2022/08/19 08:01:15;;;;;;;14.55;10.18;;;20.00;99.90;;;;;;5039961;28;20029;-73
2022/08/19 08:09:11;;;;;;;12.32;9.57;;;20.30;99.90;;;;;;5039192;28;20060;-73
2022/08/19 08:11:42;;;;;;;11.70;9.40;;;20.40;99.90;;;;;;5031475;28;20041;-73
2022/08/19 08:14:09;;;;;;;12.60;9.05;;;20.40;99.90;;;;;;5016541;28;20413;-73
2022/08/19 08:16:38;;;;;;;12.63;8.95;;;20.50;99.90;;;;;;5033230;28;20068;-73
2022/08/19 08:19:05;;;;;;;13.20;9.23;;;20.60;99.90;;;;;;5049683;28;20571;-73
2022/08/19 08:21:32;;;;;;;12.95;8.57;;;20.60;99.90;;;;;;5053098;28;20036;-73
2022/08/19 08:23:58;;;;;;;12.27;9.65;;;20.70;99.90;;;;;;5052582;28;20490;-73
2022/08/19 08:26:24;;;;;;;12.95;8.05;;;20.80;99.90;;;;;;5020983;28;20060;-73
2022/08/19 08:28:51;;;;;;;12.93;9.60;;;20.90;99.90;;;;;;5058495;28;20041;-73
2022/08/19 08:31:18;;;;;;;12.30;9.40;;;21.00;99.90;;;;;;5057913;28;20072;-73
2022/08/19 08:33:44;;;;;;;12.57;9.45;;;21.10;99.90;;;;;;5050071;28;20048;-73
2022/08/19 08:36:11;;;;;;;14.13;10.13;;;21.10;99.90;;;;;;5042900;28;20109;-73
2022/08/19 08:38:37;;;;;;;12.25;9.45;;;21.20;99.90;;;;;;5034344;28;20043;-73
2022/08/19 08:41:22;;;;;;;11.75;9.13;;;21.30;99.90;;;;;;5037008;28;20041;-73
2022/08/19 08:43:51;;;;;;;11.93;9.02;;;21.40;99.90;;;;;;5052333;28;20049;-73
2022/08/19 08:46:40;;;;;;;12.98;10.15;;;21.50;99.90;;;;;;5019627;28;20420;-73
2022/08/19 08:49:46;;;;;;;12.68;9.70;;;21.60;99.90;;;;;;5049803;28;20037;-80
2022/08/19 08:52:25;;;;;;;11.93;9.02;;;21.70;99.90;;;;;;5045913;28;20037;-73
2022/08/19 08:54:54;;;;;;;11.85;7.97;;;21.80;99.90;;;;;;5051647;28;20097;-73
2022/08/19 08:57:30;;;;;;;11.93;9.35;;;21.90;99.90;;;;;;5034371;28;20083;-73
2022/08/19 09:00:00;;;;;;;12.90;9.25;;;22.00;99.90;;;;;;5035797;28;20037;-73
2022/08/19 09:02:26;;;;;;;11.88;8.55;;;22.10;99.90;;;;;;5052719;28;20068;-73
2022/08/19 09:04:53;;;;;;;11.80;8.40;;;22.20;99.90;;;;;;5035584;28;20045;-73
2022/08/19 09:07:41;;;;;;;11.50;8.43;;;22.30;99.90;;;;;;5052382;28;20052;-74
2022/08/19 09:10:16;;;;;;;13.68;9.63;;;22.40;99.90;;;;;;5035565;28;20045;-73
2022/08/19 09:13:06;;;;;;;12.48;9.02;;;22.50;99.90;;;;;;5017942;28;20045;-73
2022/08/19 09:15:44;;;;;;;13.15;9.32;;;22.50;99.90;;;;;;5032861;28;20102;-73
2022/08/19 09:18:10;;;;;;;12.18;8.95;;;22.60;99.90;;;;;;5049651;28;20045;-74
2022/08/19 09:20:36;;;;;;;10.60;7.38;;;22.70;99.90;;;;;;5032582;28;20053;-73
2022/08/19 09:23:01;;;;;;;12.00;6.90;;;22.70;99.90;;;;;;5049337;28;20037;-73
2022/08/19 09:25:27;;;;;;;8.13;5.57;;;22.80;99.90;;;;;;5059403;28;20045;-73
2022/08/19 09:27:54;;;;;;;8.05;5.70;;;22.80;99.90;;;;;;5032298;28;20065;-73
2022/08/19 09:30:24;;;;;;;9.88;7.13;;;22.90;99.90;;;;;;5026579;28;20047;-73
2022/08/19 09:32:52;;;;;;;10.77;7.13;;;22.90;99.90;;;;;;5069351;28;20045;-73
2022/08/19 09:35:21;;;;;;;12.23;7.90;;;22.90;99.90;;;;;;5052393;28;20045;-81
2022/08/19 09:37:48;;;;;;;10.95;7.10;;;23.00;99.90;;;;;;5046597;28;20100;-76
2022/08/19 09:40:15;;;;;;;9.73;6.78;;;23.00;99.90;;;;;;5060756;28;20124;-76
2022/08/19 09:42:43;;;;;;;9.10;6.20;;;23.10;99.90;;;;;;5027494;28;20041;-75
2022/08/19 09:45:09;;;;;;;8.65;6.03;;;23.20;99.90;;;;;;5057836;28;20041;-76
2022/08/19 09:47:37;;;;;;;8.85;6.65;;;23.30;99.90;;;;;;5028820;28;20040;-76
2022/08/19 09:50:07;;;;;;;11.48;7.30;;;23.30;99.90;;;;;;5041710;28;20048;-75
2022/08/19 09:52:36;;;;;;;9.20;6.63;;;23.40;99.90;;;;;;5035723;28;20485;-76
2022/08/19 09:55:09;;;;;;;8.57;5.97;;;23.40;99.90;;;;;;5050357;28;20044;-75
2022/08/19 09:57:35;;;;;;;9.95;6.80;;;23.50;99.90;;;;;;5030694;28;20048;-75
2022/08/19 10:00:00;;;;;;;9.15;6.25;;;23.50;99.90;;;;;;5046324;28;20064;-75
2022/08/19 10:02:26;;;;;;;10.93;6.95;;;23.60;99.90;;;;;;5046962;28;20037;-75
2022/08/19 10:07:43;;;;;;;9.90;7.28;;;23.70;99.90;;;;;;5009689;28;20094;-75
2022/08/19 10:10:09;;;;;;;9.45;6.63;;;23.80;99.90;;;;;;5048197;28;20036;-75
2022/08/19 10:12:36;;;;;;;10.38;7.10;;;23.90;99.90;;;;;;5049108;28;20414;-76
2022/08/19 10:15:04;;;;;;;9.70;6.57;;;23.90;99.90;;;;;;5043365;28;20045;-75
2022/08/19 10:17:29;;;;;;;10.00;7.00;;;23.90;99.90;;;;;;5033584;28;20513;-73
2022/08/19 10:19:55;;;;;;;10.07;6.78;;;24.00;99.90;;;;;;5017092;28;20033;-73
2022/08/19 10:22:22;;;;;;;10.18;6.72;;;24.00;99.90;;;;;;5031498;28;20037;-73
2022/08/19 10:24:47;;;;;;;8.40;6.57;;;24.10;99.90;;;;;;5028592;28;20090;-73
2022/08/19 10:27:14;;;;;;;9.43;7.53;;;24.20;99.90;;;;;;5042284;28;20033;-73
2022/08/19 10:29:40;;;;;;;10.32;6.72;;;24.20;99.90;;;;;;5043933;28;20406;-73
2022/08/19 10:32:08;;;;;;;9.40;6.25;;;24.20;99.90;;;;;;5044142;28;20045;-73
2022/08/19 10:34:35;;;;;;;10.57;8.55;;;24.20;99.90;;;;;;5048708;28;20455;-73
2022/08/19 10:37:05;;;;;;;8.98;6.93;;;24.20;99.90;;;;;;5032661;28;20115;-73
2022/08/19 10:39:32;;;;;;;9.55;7.22;;;24.40;99.90;;;;;;5033793;28;20048;-73
2022/08/19 10:41:57;;;;;;;9.18;7.07;;;24.50;99.90;;;;;;5031625;28;20037;-73
2022/08/19 10:44:23;;;;;;;9.95;7.30;;;24.50;99.90;;;;;;5065034;28;20413;-73
2022/08/19 10:46:49;;;;;;;10.00;7.13;;;24.50;99.90;;;;;;5044353;28;20063;-73
2022/08/19 10:49:15;;;;;;;9.45;6.95;;;24.50;99.90;;;;;;5031368;28;20045;-73
2022/08/19 10:56:50;;;;;;;9.45;6.60;;;24.70;99.90;;;;;;5065881;28;20382;-73
2022/08/19 10:57:13;;;;;;;9.68;7.25;;;24.70;99.90;;;;;;5033489;28;20041;-73
2022/08/19 10:59:38;;;;;;;11.65;6.88;;;24.60;99.90;;;;;;5032733;28;20041;-73
2022/08/19 11:02:12;;;;;;;9.70;6.35;;;24.60;99.90;;;;;;5036086;28;20551;-73
2022/08/19 11:04:40;;;;;;;10.27;7.82;;;24.70;99.90;;;;;;5036111;28;20076;-74
2022/08/19 11:07:07;;;;;;;8.30;6.55;;;24.70;99.90;;;;;;5079626;28;20042;-77
2022/08/19 11:09:40;;;;;;;9.45;7.35;;;24.80;99.90;;;;;;5029839;28;20095;-74
2022/08/19 11:12:07;;;;;;;9.50;7.03;;;24.70;99.90;;;;;;5046896;28;20041;-75
2022/08/19 11:14:34;;;;;;;9.77;7.47;;;24.60;99.90;;;;;;5055031;28;20045;-75
2022/08/19 11:17:00;;;;;;;9.75;7.82;;;24.70;99.90;;;;;;5038408;28;20040;-75
2022/08/19 11:19:27;;;;;;;9.98;7.78;;;24.70;99.90;;;;;;5051069;28;20489;-74
2022/08/19 11:21:54;;;;;;;9.88;7.32;;;24.60;99.90;;;;;;5052284;28;20048;-75
2022/08/19 11:24:25;;;;;;;10.93;7.38;;;24.40;99.90;;;;;;5037699;28;20090;-75
2022/08/19 11:26:52;;;;;;;11.30;7.93;;;24.30;99.90;;;;;;5042095;28;20133;-74
2022/08/19 11:29:21;;;;;;;9.95;7.22;;;24.20;99.90;;;;;;5049719;28;20408;-75
2022/08/19 11:31:49;;;;;;;9.43;7.25;;;24.00;99.90;;;;;;5036854;28;20124;-75
2022/08/19 11:34:21;;;;;;;9.85;7.65;;;23.90;99.90;;;;;;5053919;28;20086;-74
2022/08/19 11:36:47;;;;;;;9.98;7.80;;;24.00;99.90;;;;;;5054007;28;20045;-75
2022/08/19 11:39:22;;;;;;;10.85;8.55;;;23.90;99.90;;;;;;5050149;28;20032;-75
2022/08/19 11:41:48;;;;;;;10.60;8.85;;;23.90;99.90;;;;;;5048850;28;20045;-74
2022/08/19 11:44:14;;;;;;;10.85;8.57;;;23.80;99.90;;;;;;5054303;28;20040;-75
2022/08/19 11:46:45;;;;;;;10.10;8.48;;;23.70;99.90;;;;;;5053797;28;20060;-75
2022/08/19 11:49:11;;;;;;;12.63;9.63;;;23.70;99.90;;;;;;5053947;28;20048;-75
2022/08/19 11:51:37;;;;;;;9.40;7.97;;;23.80;99.90;;;;;;5037400;28;20049;-75
2022/08/19 11:54:05;;;;;;;12.02;9.93;;;23.90;99.90;;;;;;5053614;28;20047;-75
2022/08/19 11:56:30;;;;;;;12.52;9.75;;;24.10;99.90;;;;;;5065460;28;20036;-75
2022/08/19 11:58:57;;;;;;;11.57;9.90;;;24.20;99.90;;;;;;5029053;28;20378;-75
2022/08/19 12:01:24;;;;;;;12.82;11.13;;;24.30;99.90;;;;;;5053593;28;20040;-75
2022/08/19 12:03:52;;;;;;;12.00;9.82;;;24.50;99.90;;;;;;5053638;28;20485;-75
2022/08/19 12:06:25;;;;;;;12.23;9.35;;;24.40;99.90;;;;;;5051984;28;20099;-75
2022/08/19 12:08:51;;;;;;;10.93;9.50;;;24.40;99.90;;;;;;5047120;28;20041;-75
2022/08/19 12:11:17;;;;;;;11.13;8.70;;;24.40;99.90;;;;;;5031901;28;20070;-75
2022/08/19 12:13:46;;;;;;;11.20;9.00;;;24.40;99.90;;;;;;5035878;28;20386;-75
2022/08/19 12:16:15;;;;;;;10.90;9.75;;;24.40;99.90;;;;;;5016004;28;20076;-75
2022/08/19 12:18:46;;;;;;;13.32;10.20;;;24.40;99.90;;;;;;5058465;28;20029;-75
2022/08/19 12:21:22;;;;;;;12.40;11.10;;;24.40;99.90;;;;;;5064469;28;20037;-75
2022/08/19 12:23:50;;;;;;;12.98;10.35;;;24.40;99.90;;;;;;5050259;28;20485;-75
2022/08/19 12:26:16;;;;;;;12.20;10.30;;;24.30;99.90;;;;;;5043724;28;20048;-75
2022/08/19 12:28:41;;;;;;;13.07;10.15;;;24.20;99.90;;;;;;5051878;28;20053;-75
2022/08/19 12:31:08;;;;;;;11.52;9.77;;;24.30;99.90;;;;;;5048217;28;20053;-75
2022/08/19 12:33:34;;;;;;;11.63;9.70;;;24.20;99.90;;;;;;5034693;28;20528;-75
2022/08/19 12:36:03;;;;;;;10.23;8.85;;;24.20;99.90;;;;;;5044712;28;20041;-75
2022/08/19 12:38:29;;;;;;;12.30;9.98;;;24.10;99.90;;;;;;5046814;28;20033;-75
2022/08/19 12:40:54;;;;;;;10.80;9.40;;;24.10;99.90;;;;;;5049779;28;20051;-75
2022/08/19 12:43:20;;;;;;;11.82;9.30;;;24.10;99.90;;;;;;5049348;28;20505;-75
2022/08/19 12:45:46;;;;;;;10.70;9.27;;;24.00;99.90;;;;;;5052827;28;20072;-75
2022/08/19 12:48:12;;;;;;;13.15;8.57;;;24.10;99.90;;;;;;5049919;28;20045;-75
2022/08/19 12:50:43;;;;;;;10.85;8.45;;;24.10;99.90;;;;;;5038978;28;20087;-75
2022/08/19 12:53:08;;;;;;;10.23;7.90;;;24.10;99.90;;;;;;5031455;28;20490;-75
2022/08/19 12:55:34;;;;;;;10.85;7.32;;;24.10;99.90;;;;;;5026127;28;20042;-75
2022/08/19 12:58:01;;;;;;;9.50;7.53;;;24.20;99.90;;;;;;5057636;28;20033;-75
2022/08/19 13:00:27;;;;;;;8.00;6.47;;;24.20;99.90;;;;;;5050861;28;20124;-75
2022/08/19 13:02:53;;;;;;;8.85;6.93;;;24.20;99.90;;;;;;5066508;28;20117;-75
2022/08/19 13:05:24;;;;;;;9.73;6.13;;;24.30;99.90;;;;;;5050420;28;20041;-75